Time;durP1;ratioP1;P1;durP2;ratioP2;P2;SDS_P1;SDS_P2;PMS_P1;PMS_P2;Temp;Humidity;BMP_temperature;BMP_pressure;BME280_temperature;BME280_humidity;BME280_pressure;Samples;Min_cycle;Max_cycle;Signal;HPM_P1;HPM_P2
2022/09/13 00:00:43;;;;;;;2.80;1.58;;;16.20;99.90;;;;;;4972037;28;20491;-76
2022/09/13 00:03:11;;;;;;;5.13;1.67;;;16.20;99.90;;;;;;4971165;28;20030;-76
2022/09/13 00:05:37;;;;;;;4.30;2.05;;;16.30;99.90;;;;;;4971564;28;20023;-76
2022/09/13 00:08:04;;;;;;;2.97;1.50;;;16.30;99.90;;;;;;4972654;28;20026;-75
2022/09/13 00:10:33;;;;;;;3.75;2.20;;;16.40;99.90;;;;;;4970821;28;20031;-76
2022/09/13 00:12:59;;;;;;;2.65;1.55;;;16.30;99.90;;;;;;4986865;28;20023;-76
2022/09/13 00:15:24;;;;;;;3.65;1.83;;;16.10;99.90;;;;;;4972376;28;20042;-76
2022/09/13 00:17:50;;;;;;;2.90;1.55;;;16.10;99.90;;;;;;4971052;28;20077;-76
2022/09/13 00:20:16;;;;;;;3.22;1.83;;;16.10;99.90;;;;;;4972069;28;20103;-76
2022/09/13 00:22:42;;;;;;;4.60;2.17;;;16.10;99.90;;;;;;4972104;28;20456;-76
2022/09/13 00:25:08;;;;;;;3.90;2.30;;;15.90;99.90;;;;;;4971942;28;20031;-76
2022/09/13 00:27:36;;;;;;;5.45;2.70;;;16.00;99.90;;;;;;4971212;28;20031;-76
2022/09/13 00:30:06;;;;;;;3.85;2.20;;;16.00;99.90;;;;;;4970730;28;20770;-76
2022/09/13 00:32:35;;;;;;;3.65;2.22;;;16.00;99.90;;;;;;4970652;28;20061;-76
2022/09/13 00:35:04;;;;;;;3.78;1.83;;;16.20;99.90;;;;;;4970652;28;20042;-76
2022/09/13 00:37:32;;;;;;;3.90;2.50;;;16.10;99.90;;;;;;4971914;28;20027;-76
2022/09/13 00:39:58;;;;;;;5.40;2.30;;;16.00;99.90;;;;;;4971648;28;20479;-76
2022/09/13 00:42:31;;;;;;;6.28;2.33;;;16.10;99.90;;;;;;4970578;28;20038;-76
2022/09/13 00:44:58;;;;;;;3.17;1.90;;;16.20;99.90;;;;;;4970852;28;20049;-76
2022/09/13 00:47:32;;;;;;;7.53;2.20;;;16.20;99.90;;;;;;4970625;28;20491;-76
2022/09/13 00:50:14;;;;;;;2.88;1.98;;;16.10;99.90;;;;;;4970229;28;20085;-76
2022/09/13 00:52:43;;;;;;;7.43;3.22;;;16.10;99.90;;;;;;4971646;28;20116;-76
2022/09/13 00:55:21;;;;;;;3.28;1.77;;;16.10;99.90;;;;;;4971934;28;20487;-76
2022/09/13 00:57:47;;;;;;;4.72;2.20;;;16.00;99.90;;;;;;4971946;28;20045;-76
2022/09/13 01:00:17;;;;;;;4.43;1.77;;;15.80;99.90;;;;;;4971536;28;20031;-76
2022/09/13 01:02:56;;;;;;;4.60;2.47;;;15.90;99.90;;;;;;4954055;28;20038;-76
2022/09/13 01:05:29;;;;;;;4.10;1.98;;;15.70;99.90;;;;;;4967626;28;20302;-77
2022/09/13 01:07:56;;;;;;;4.82;2.58;;;15.60;99.90;;;;;;4967891;28;20026;-76
2022/09/13 01:10:22;;;;;;;3.85;2.17;;;15.50;99.90;;;;;;4970141;28;20035;-75
2022/09/13 01:13:13;;;;;;;3.67;1.92;;;15.50;99.90;;;;;;4986075;28;20066;-75
2022/09/13 01:15:40;;;;;;;3.70;2.03;;;15.50;99.90;;;;;;4970597;28;20038;-76
2022/09/13 01:18:08;;;;;;;3.58;2.25;;;15.60;99.90;;;;;;4971648;28;20031;-76
2022/09/13 01:21:11;;;;;;;7.10;1.88;;;15.60;99.90;;;;;;4986325;28;20027;-75
2022/09/13 01:23:54;;;;;;;2.85;1.73;;;15.50;99.90;;;;;;4971002;28;20034;-75
2022/09/13 01:26:44;;;;;;;8.80;1.83;;;15.30;99.90;;;;;;4970536;28;20023;-75
2022/09/13 01:30:06;;;;;;;3.33;2.00;;;15.20;99.90;;;;;;4971071;28;20042;-75
2022/09/13 01:32:55;;;;;;;4.10;1.75;;;15.20;99.90;;;;;;4965601;28;20043;-76
2022/09/13 01:36:18;;;;;;;4.05;2.25;;;15.30;99.90;;;;;;4971425;28;20031;-76
2022/09/13 01:39:01;;;;;;;3.22;2.00;;;15.30;99.90;;;;;;4969697;28;20101;-76
2022/09/13 01:41:33;;;;;;;5.38;2.50;;;15.40;99.90;;;;;;4971407;28;20027;-76
2022/09/13 01:44:32;;;;;;;5.82;1.80;;;15.30;99.90;;;;;;4971031;28;20516;-75
2022/09/13 01:47:30;;;;;;;3.72;2.00;;;15.40;99.90;;;;;;4971500;28;20094;-76
2022/09/13 01:50:23;;;;;;;5.28;2.72;;;15.50;99.90;;;;;;4971404;28;20466;-76
2022/09/13 01:53:19;;;;;;;5.57;2.55;;;15.40;99.90;;;;;;4973778;28;20058;-75
2022/09/13 01:55:55;;;;;;;7.40;2.38;;;15.50;99.90;;;;;;4974198;28;20054;-76
2022/09/13 01:58:55;;;;;;;3.20;2.10;;;15.50;99.90;;;;;;4989816;28;20031;-76
2022/09/13 02:01:38;;;;;;;4.15;2.30;;;15.50;99.90;;;;;;4975173;28;20376;-76
2022/09/13 02:04:12;;;;;;;22.20;3.15;;;15.60;99.90;;;;;;4974349;28;20043;-76
2022/09/13 02:06:51;;;;;;;4.55;2.63;;;15.60;99.90;;;;;;4989060;28;20027;-76
2022/09/13 02:09:23;;;;;;;5.43;2.85;;;15.50;99.90;;;;;;4989031;28;20029;-76
2022/09/13 02:11:58;;;;;;;5.75;2.17;;;15.60;99.90;;;;;;4989252;28;20105;-77
2022/09/13 02:14:33;;;;;;;6.22;2.90;;;15.60;99.90;;;;;;4988422;28;20041;-77
2022/09/13 02:17:18;;;;;;;7.38;2.20;;;15.70;99.90;;;;;;4989237;28;20044;-77
2022/09/13 02:19:56;;;;;;;3.58;2.05;;;15.50;99.90;;;;;;4972989;28;20035;-76
2022/09/13 02:22:43;;;;;;;4.60;2.40;;;15.40;99.90;;;;;;4972790;28;20022;-76
2022/09/13 02:25:16;;;;;;;3.40;2.17;;;15.10;99.90;;;;;;4973158;28;20436;-77
2022/09/13 02:27:47;;;;;;;10.88;2.35;;;15.00;99.90;;;;;;4989061;28;20446;-77
2022/09/13 02:30:14;;;;;;;7.40;2.58;;;15.10;99.90;;;;;;4988609;28;20104;-76
2022/09/13 02:33:11;;;;;;;5.30;2.25;;;15.10;99.90;;;;;;4988612;28;20030;-77
2022/09/13 02:36:02;;;;;;;5.38;2.17;;;15.10;99.90;;;;;;4974223;28;20097;-76
2022/09/13 02:38:39;;;;;;;5.20;1.80;;;15.10;99.90;;;;;;4975936;28;20046;-77
2022/09/13 02:41:18;;;;;;;3.20;2.13;;;15.20;99.90;;;;;;4988144;28;20102;-77
2022/09/13 02:43:53;;;;;;;3.95;2.00;;;15.20;99.90;;;;;;4973671;28;20331;-77
2022/09/13 02:46:56;;;;;;;4.60;2.65;;;15.20;99.90;;;;;;4988471;28;20073;-76
2022/09/13 02:49:50;;;;;;;4.43;2.20;;;15.20;99.90;;;;;;4986333;28;20034;-77
2022/09/13 02:52:47;;;;;;;5.82;2.10;;;15.20;99.90;;;;;;4972337;28;20030;-76
2022/09/13 02:55:41;;;;;;;3.72;1.88;;;15.20;99.90;;;;;;4981345;23;20063;-72
2022/09/13 02:58:53;;;;;;;3.95;2.30;;;15.20;99.90;;;;;;4939173;29;20031;-72
2022/09/13 03:01:20;;;;;;;4.05;2.40;;;15.20;99.90;;;;;;4915757;29;20039;-72
2022/09/13 03:03:46;;;;;;;4.55;2.55;;;15.30;99.90;;;;;;4958022;28;20416;-72
2022/09/13 03:06:12;;;;;;;4.72;2.58;;;15.30;99.90;;;;;;4980260;28;20037;-72
2022/09/13 03:08:38;;;;;;;5.10;2.63;;;15.30;99.90;;;;;;4992644;28;20072;-72
2022/09/13 03:11:19;;;;;;;4.22;2.10;;;15.40;99.90;;;;;;4986031;28;20054;-72
2022/09/13 03:14:30;;;;;;;5.47;2.85;;;15.40;99.90;;;;;;4972755;28;20038;-72
2022/09/13 03:17:26;;;;;;;5.28;2.90;;;15.40;99.90;;;;;;4952855;29;20043;-72
2022/09/13 03:20:20;;;;;;;3.63;1.92;;;15.20;99.90;;;;;;4969906;28;20483;-72
2022/09/13 03:23:20;;;;;;;4.40;2.08;;;15.20;99.90;;;;;;4991992;28;20045;-73
2022/09/13 03:26:22;;;;;;;4.72;2.33;;;15.20;99.90;;;;;;4992618;28;20398;-73
2022/09/13 03:29:31;;;;;;;6.80;3.20;;;15.30;99.90;;;;;;4992240;28;20036;-71
2022/09/13 03:32:25;;;;;;;3.28;2.20;;;15.40;99.90;;;;;;4991103;28;20160;-72
2022/09/13 03:35:14;;;;;;;4.70;2.50;;;15.50;99.90;;;;;;4991906;28;20085;-71
2022/09/13 03:38:08;;;;;;;5.65;2.50;;;15.60;99.90;;;;;;4960965;28;20050;-72
2022/09/13 03:40:50;;;;;;;3.70;2.03;;;15.30;99.90;;;;;;4971025;28;20033;-72
2022/09/13 03:43:47;;;;;;;4.78;1.95;;;15.40;99.90;;;;;;4971121;28;20088;-72
2022/09/13 03:46:25;;;;;;;3.63;1.90;;;15.50;99.90;;;;;;4972729;28;20054;-72
2022/09/13 03:48:52;;;;;;;5.78;2.25;;;15.50;99.90;;;;;;4971105;28;20041;-70
2022/09/13 03:51:18;;;;;;;7.20;3.00;;;15.40;99.90;;;;;;4971307;28;20030;-69
2022/09/13 03:53:57;;;;;;;10.00;3.90;;;15.30;99.90;;;;;;4970827;28;20082;-69
2022/09/13 03:56:23;;;;;;;3.33;2.38;;;15.20;99.90;;;;;;4971549;28;20554;-69
2022/09/13 03:58:50;;;;;;;3.75;2.45;;;15.20;99.90;;;;;;4978582;28;20061;-69
2022/09/13 04:01:22;;;;;;;9.23;2.17;;;15.20;99.90;;;;;;4968883;28;20038;-69
2022/09/13 04:03:49;;;;;;;3.10;1.92;;;15.40;99.90;;;;;;4962920;28;20058;-68
2022/09/13 04:06:15;;;;;;;4.13;2.13;;;15.40;99.90;;;;;;4970154;28;20508;-69
2022/09/13 04:08:41;;;;;;;5.68;2.90;;;15.40;99.90;;;;;;4971355;28;20045;-68
2022/09/13 04:11:08;;;;;;;4.47;2.55;;;15.50;99.90;;;;;;4980143;28;20022;-68
2022/09/13 04:13:35;;;;;;;5.30;2.40;;;15.50;99.90;;;;;;4991074;28;20486;-69
2022/09/13 04:16:05;;;;;;;3.35;2.08;;;15.50;99.90;;;;;;4978710;28;20030;-69
2022/09/13 04:18:32;;;;;;;7.55;2.22;;;15.30;99.90;;;;;;4979752;28;20118;-69
2022/09/13 04:20:59;;;;;;;3.95;2.58;;;15.30;99.90;;;;;;4977138;28;20045;-68
2022/09/13 04:23:27;;;;;;;5.00;2.95;;;15.40;99.90;;;;;;4985135;28;20030;-68
2022/09/13 04:25:53;;;;;;;9.60;2.75;;;15.40;99.90;;;;;;4979431;28;20037;-68
2022/09/13 04:28:21;;;;;;;6.75;2.88;;;15.30;99.90;;;;;;4972095;28;20029;-69
2022/09/13 04:30:48;;;;;;;4.78;2.80;;;15.30;99.90;;;;;;4970465;28;20027;-68
2022/09/13 04:33:16;;;;;;;130.27;58.70;;;15.40;99.90;;;;;;4971620;28;20031;-68
2022/09/13 04:35:42;;;;;;;85.65;43.67;;;15.40;99.90;;;;;;4971235;28;20025;-68
2022/09/13 04:38:08;;;;;;;5.00;3.58;;;15.40;99.90;;;;;;4954833;28;20045;-68
2022/09/13 04:40:34;;;;;;;6.45;2.60;;;15.20;99.90;;;;;;4971306;28;20031;-69
2022/09/13 04:43:01;;;;;;;6.63;2.75;;;15.10;99.90;;;;;;4954239;28;20034;-69
2022/09/13 04:45:27;;;;;;;4.28;2.53;;;15.00;99.90;;;;;;4971220;28;20038;-69
2022/09/13 04:47:55;;;;;;;6.03;2.42;;;14.90;99.90;;;;;;4953017;28;20031;-69
2022/09/13 04:50:23;;;;;;;7.47;3.30;;;14.90;99.90;;;;;;4968906;28;20106;-68
2022/09/13 04:52:49;;;;;;;6.63;2.92;;;14.90;99.90;;;;;;4970992;28;20042;-67
2022/09/13 04:55:16;;;;;;;13.80;3.42;;;14.90;99.90;;;;;;4950353;28;20041;-68
2022/09/13 04:57:41;;;;;;;3.88;2.40;;;15.00;99.90;;;;;;4970738;28;20027;-69
2022/09/13 05:00:09;;;;;;;3.80;2.17;;;14.90;99.90;;;;;;4953794;28;20052;-70
2022/09/13 05:02:34;;;;;;;5.30;2.90;;;14.90;99.90;;;;;;4971116;28;20041;-70
2022/09/13 05:05:00;;;;;;;5.88;3.30;;;14.80;99.90;;;;;;4953560;28;20038;-72
2022/09/13 05:07:26;;;;;;;6.72;2.78;;;14.70;99.90;;;;;;4971115;28;20034;-71
2022/09/13 05:09:51;;;;;;;3.65;2.50;;;14.80;99.90;;;;;;4970510;28;20038;-71
2022/09/13 05:12:17;;;;;;;4.70;2.30;;;15.00;99.90;;;;;;4988558;28;20034;-72
2022/09/13 05:14:43;;;;;;;9.57;2.72;;;14.90;99.90;;;;;;4987823;28;20394;-72
2022/09/13 05:17:08;;;;;;;4.40;2.90;;;14.90;99.90;;;;;;4971087;28;20471;-72
2022/09/13 05:19:34;;;;;;;3.63;1.90;;;15.00;99.90;;;;;;4970671;28;20070;-71
2022/09/13 05:22:01;;;;;;;5.13;2.95;;;15.00;99.90;;;;;;4953352;28;20023;-71
2022/09/13 05:24:26;;;;;;;7.38;3.03;;;15.10;99.90;;;;;;4963428;28;20082;-72
2022/09/13 05:26:53;;;;;;;3.13;1.80;;;15.20;99.90;;;;;;4971417;28;20031;-72
2022/09/13 05:29:19;;;;;;;6.15;3.00;;;15.30;99.90;;;;;;4973310;28;20454;-71
2022/09/13 05:31:45;;;;;;;7.75;3.05;;;15.40;99.90;;;;;;4973406;28;20034;-72
2022/09/13 05:34:16;;;;;;;4.80;2.75;;;15.30;99.90;;;;;;4972671;28;20042;-72
2022/09/13 05:36:42;;;;;;;;;;;15.30;99.90;;;;;;4972495;28;20027;-72
2022/09/13 05:39:14;;;;;;;9.70;3.63;;;15.20;99.90;;;;;;4956165;28;19918;-72
2022/09/13 05:41:40;;;;;;;4.28;2.55;;;15.20;99.90;;;;;;4974446;28;20038;-72
2022/09/13 05:44:07;;;;;;;6.50;3.15;;;15.20;99.90;;;;;;4973761;28;20063;-72
2022/09/13 05:46:32;;;;;;;4.60;2.63;;;15.40;99.90;;;;;;4973992;28;20029;-72
2022/09/13 05:48:58;;;;;;;5.47;2.20;;;15.40;99.90;;;;;;4973751;28;20107;-72
2022/09/13 05:51:25;;;;;;;7.05;3.35;;;15.50;99.90;;;;;;4973891;28;20031;-72
2022/09/13 05:53:53;;;;;;;5.45;2.83;;;15.50;99.90;;;;;;4956496;28;20106;-71
2022/09/13 05:56:28;;;;;;;5.63;2.15;;;15.40;99.90;;;;;;4974051;28;20468;-72
2022/09/13 05:58:54;;;;;;;14.63;2.80;;;15.40;99.90;;;;;;4973444;28;20034;-72
2022/09/13 06:01:29;;;;;;;5.30;2.67;;;15.40;99.90;;;;;;4973200;28;20054;-71
2022/09/13 06:03:57;;;;;;;4.07;2.60;;;15.50;99.90;;;;;;4956190;28;20483;-71
2022/09/13 06:06:24;;;;;;;10.80;3.80;;;15.60;99.90;;;;;;4956639;28;20042;-72
2022/09/13 06:08:55;;;;;;;4.53;3.15;;;15.50;99.90;;;;;;4973497;28;20039;-72
2022/09/13 06:11:21;;;;;;;4.97;2.92;;;15.60;99.90;;;;;;4966850;28;20395;-72
2022/09/13 06:13:47;;;;;;;5.57;2.97;;;15.70;99.90;;;;;;4991513;28;20110;-72
2022/09/13 06:16:15;;;;;;;5.65;3.17;;;15.60;99.90;;;;;;4991976;28;20022;-72
2022/09/13 06:18:41;;;;;;;5.68;3.35;;;15.60;99.90;;;;;;4975958;28;20106;-71
2022/09/13 06:21:19;;;;;;;9.30;4.43;;;15.70;99.90;;;;;;4961597;28;20109;-72
2022/09/13 06:23:47;;;;;;;9.55;4.72;;;15.90;99.90;;;;;;4956202;28;20042;-72
2022/09/13 06:26:15;;;;;;;11.00;4.13;;;16.00;99.90;;;;;;4956505;28;20054;-72
2022/09/13 06:28:42;;;;;;;8.18;4.32;;;16.00;99.90;;;;;;4973377;28;20110;-72
2022/09/13 06:31:11;;;;;;;6.75;3.80;;;16.10;99.90;;;;;;4955993;28;20058;-71
2022/09/13 06:33:40;;;;;;;9.95;3.30;;;16.00;99.90;;;;;;4955825;28;20459;-71
2022/09/13 06:36:18;;;;;;;6.20;3.65;;;16.00;99.90;;;;;;4956163;28;20431;-71
2022/09/13 06:38:46;;;;;;;8.80;2.53;;;16.00;99.90;;;;;;4973267;28;20035;-70
2022/09/13 06:41:22;;;;;;;10.70;3.33;;;16.10;99.90;;;;;;4992646;28;20026;-72
2022/09/13 06:43:57;;;;;;;4.78;2.53;;;16.10;99.90;;;;;;4974956;28;20038;-72
2022/09/13 06:46:23;;;;;;;3.97;2.30;;;16.30;99.90;;;;;;4991452;28;20031;-71
2022/09/13 06:48:49;;;;;;;5.20;2.55;;;16.30;99.90;;;;;;4992290;28;20045;-72
2022/09/13 06:51:22;;;;;;;3.17;1.92;;;16.30;99.90;;;;;;4978335;28;20046;-72
2022/09/13 06:53:48;;;;;;;9.10;2.25;;;16.30;99.90;;;;;;4972410;28;20039;-72
2022/09/13 06:56:24;;;;;;;4.47;2.78;;;16.40;99.90;;;;;;4971969;28;20061;-72
2022/09/13 06:58:55;;;;;;;4.18;2.38;;;16.60;99.90;;;;;;4955201;28;20089;-72
2022/09/13 07:01:28;;;;;;;4.78;2.25;;;16.50;99.90;;;;;;4965175;28;20026;-71
2022/09/13 07:03:59;;;;;;;4.22;2.33;;;16.40;99.90;;;;;;4962226;28;20034;-72
2022/09/13 07:06:29;;;;;;;4.15;2.40;;;16.50;99.90;;;;;;4972361;28;20093;-71
2022/09/13 07:08:57;;;;;;;4.38;1.85;;;16.60;99.90;;;;;;4971991;28;20035;-72
2022/09/13 07:11:26;;;;;;;5.97;2.17;;;16.80;99.90;;;;;;4954588;28;20037;-72
2022/09/13 07:13:55;;;;;;;3.28;1.80;;;16.70;99.90;;;;;;4970575;28;20030;-71
2022/09/13 07:16:26;;;;;;;5.85;2.28;;;16.70;99.90;;;;;;4970907;28;20038;-72
2022/09/13 07:18:55;;;;;;;5.20;2.20;;;16.70;99.90;;;;;;4972120;28;20031;-71
2022/09/13 07:21:22;;;;;;;5.63;2.15;;;16.70;99.90;;;;;;4971673;28;20038;-71
2022/09/13 07:23:49;;;;;;;5.03;2.05;;;16.80;99.90;;;;;;4970241;28;20443;-71
2022/09/13 07:26:15;;;;;;;2.75;1.63;;;16.90;99.90;;;;;;4978717;28;20046;-71
2022/09/13 07:28:47;;;;;;;3.47;1.90;;;17.00;99.90;;;;;;4990857;28;20605;-72
2022/09/13 07:31:19;;;;;;;3.22;1.70;;;17.10;99.90;;;;;;4990303;28;20129;-71
2022/09/13 07:33:46;;;;;;;6.22;1.80;;;17.20;99.90;;;;;;4959054;28;20095;-71
2022/09/13 07:36:13;;;;;;;3.17;1.55;;;17.20;99.90;;;;;;4961411;28;20022;-72
2022/09/13 07:38:45;;;;;;;4.20;2.45;;;17.30;99.90;;;;;;4971353;28;20495;-72
2022/09/13 07:41:17;;;;;;;2.67;1.65;;;17.40;99.90;;;;;;4970048;28;20035;-71
2022/09/13 07:43:44;;;;;;;3.05;1.92;;;17.40;99.90;;;;;;4971160;28;20130;-71
2022/09/13 07:46:12;;;;;;;2.83;1.80;;;17.40;99.90;;;;;;4969438;28;20121;-72
2022/09/13 07:48:41;;;;;;;3.60;1.77;;;17.50;99.90;;;;;;4969720;28;20039;-72
2022/09/13 07:51:08;;;;;;;4.47;1.88;;;17.50;99.90;;;;;;4967902;28;20141;-71
2022/09/13 07:53:36;;;;;;;5.30;2.45;;;17.50;99.90;;;;;;4969254;28;20554;-71
2022/09/13 07:56:11;;;;;;;4.13;1.98;;;17.50;99.90;;;;;;4969804;28;20113;-71
2022/09/13 07:58:39;;;;;;;2.83;1.42;;;17.60;99.90;;;;;;4967882;28;20034;-71
2022/09/13 08:01:20;;;;;;;4.32;2.17;;;17.50;99.90;;;;;;4968709;28;20487;-71
2022/09/13 08:04:06;;;;;;;3.47;2.10;;;17.60;99.90;;;;;;4968600;28;20121;-71
2022/09/13 08:06:34;;;;;;;3.20;2.15;;;17.70;99.90;;;;;;4970979;28;20057;-71
2022/09/13 08:09:00;;;;;;;4.35;2.35;;;17.70;99.90;;;;;;4969747;28;20372;-71
2022/09/13 08:11:37;;;;;;;4.07;2.00;;;17.80;99.90;;;;;;4974788;28;20034;-71
2022/09/13 08:14:04;;;;;;;4.10;2.22;;;17.90;99.90;;;;;;4970681;28;20042;-71
2022/09/13 08:16:30;;;;;;;3.83;2.10;;;17.90;99.90;;;;;;4945658;28;20063;-71
2022/09/13 08:19:00;;;;;;;3.90;2.22;;;18.00;99.90;;;;;;4970643;28;20030;-71
2022/09/13 08:21:36;;;;;;;3.30;2.10;;;18.20;99.90;;;;;;4972875;28;20099;-71
2022/09/13 08:24:04;;;;;;;3.42;1.92;;;18.20;99.90;;;;;;4970022;28;20045;-71
2022/09/13 08:26:32;;;;;;;4.90;2.00;;;18.30;99.90;;;;;;4970390;28;20038;-71
2022/09/13 08:29:03;;;;;;;5.03;2.63;;;18.40;99.90;;;;;;4970251;28;20105;-72
2022/09/13 08:31:29;;;;;;;4.45;2.25;;;18.60;99.90;;;;;;4970410;28;20031;-71
2022/09/13 08:33:55;;;;;;;3.13;1.80;;;18.60;99.90;;;;;;4968732;28;20488;-71
2022/09/13 08:36:25;;;;;;;4.78;2.63;;;18.60;99.90;;;;;;4971095;28;20050;-71
2022/09/13 08:38:56;;;;;;;4.60;1.83;;;18.70;99.90;;;;;;4966390;28;20033;-71
2022/09/13 08:41:46;;;;;;;2.65;1.65;;;18.80;99.90;;;;;;4970475;28;20050;-72
2022/09/13 08:44:34;;;;;;;3.90;1.80;;;18.90;99.90;;;;;;4967957;28;20096;-71
2022/09/13 08:47:31;;;;;;;4.00;2.05;;;19.00;99.90;;;;;;4976789;28;20035;-72
2022/09/13 08:50:12;;;;;;;5.00;2.38;;;19.20;99.90;;;;;;4969220;28;20062;-72
2022/09/13 08:52:57;;;;;;;7.72;1.58;;;19.40;99.90;;;;;;4962833;28;20030;-72
2022/09/13 08:56:09;;;;;;;4.35;2.28;;;19.40;99.90;;;;;;4991379;23;20055;-78
2022/09/13 08:58:53;;;;;;;4.28;2.55;;;19.20;99.90;;;;;;4988243;28;20117;-77
2022/09/13 09:01:32;;;;;;;3.08;1.85;;;19.40;99.90;;;;;;4991186;28;20038;-77
2022/09/13 09:04:09;;;;;;;6.25;2.45;;;19.40;99.90;;;;;;4993613;28;20030;-77
2022/09/13 09:06:35;;;;;;;6.53;2.22;;;19.30;99.90;;;;;;4991479;28;20562;-77
2022/09/13 09:09:12;;;;;;;7.10;2.22;;;19.30;99.90;;;;;;4992723;28;20039;-77
2022/09/13 09:11:47;;;;;;;3.58;1.90;;;19.40;99.90;;;;;;4991767;28;20809;-77
2022/09/13 09:14:34;;;;;;;4.82;2.30;;;19.70;99.90;;;;;;4992540;28;20034;-77
2022/09/13 09:17:07;;;;;;;4.45;2.40;;;19.70;99.90;;;;;;4992501;28;20038;-78
2022/09/13 09:19:39;;;;;;;3.42;2.03;;;20.00;99.90;;;;;;4993612;28;20545;-77
2022/09/13 09:22:33;;;;;;;3.90;1.90;;;20.40;99.90;;;;;;4992197;28;20040;-78
2022/09/13 09:24:59;;;;;;;3.63;2.08;;;20.30;99.90;;;;;;4955077;28;20047;-78
2022/09/13 09:27:26;;;;;;;8.90;3.83;;;20.40;99.90;;;;;;4992937;28;20042;-78
2022/09/13 09:29:57;;;;;;;7.75;2.83;;;20.30;99.90;;;;;;4993818;28;20037;-78
2022/09/13 09:32:37;;;;;;;3.58;2.10;;;20.40;99.90;;;;;;4976674;28;20038;-78
2022/09/13 09:35:16;;;;;;;4.97;2.50;;;20.40;99.90;;;;;;4988846;28;20514;-78
2022/09/13 09:37:59;;;;;;;4.03;1.98;;;20.70;99.90;;;;;;4991628;28;20042;-78
2022/09/13 09:40:24;;;;;;;4.30;2.30;;;21.00;99.90;;;;;;4991775;28;20069;-78
2022/09/13 09:42:50;;;;;;;12.98;2.42;;;21.30;99.90;;;;;;4990558;28;20066;-78
2022/09/13 09:45:33;;;;;;;3.63;2.03;;;21.50;99.90;;;;;;4993152;28;20096;-79
2022/09/13 09:48:08;;;;;;;6.07;3.38;;;21.60;99.90;;;;;;4991949;28;20033;-77
2022/09/13 09:50:50;;;;;;;4.45;1.95;;;21.70;99.90;;;;;;4991345;28;20040;-82
2022/09/13 09:53:25;;;;;;;6.85;2.33;;;21.50;99.90;;;;;;4992099;28;20038;-77
2022/09/13 09:56:02;;;;;;;3.97;2.25;;;21.80;99.90;;;;;;4991916;28;20034;-81
2022/09/13 09:58:49;;;;;;;3.40;1.90;;;21.80;99.90;;;;;;4991372;28;20390;-79
2022/09/13 10:01:32;;;;;;;12.05;2.60;;;21.70;99.90;;;;;;4991882;28;20113;-77
2022/09/13 10:04:28;;;;;;;5.28;2.55;;;21.40;99.90;;;;;;4985081;28;20042;-77
2022/09/13 10:07:31;;;;;;;16.70;3.70;;;21.70;99.90;;;;;;4979071;28;20042;-76
2022/09/13 10:10:07;;;;;;;15.27;2.90;;;21.60;99.90;;;;;;4954496;28;20383;-78
2022/09/13 10:12:36;;;;;;;9.88;3.35;;;21.60;99.90;;;;;;4961883;28;20054;-80
2022/09/13 10:15:26;;;;;;;6.32;2.58;;;21.70;99.90;;;;;;4990932;28;20414;-76
2022/09/13 10:18:15;;;;;;;3.72;2.05;;;21.70;99.90;;;;;;4990822;28;20036;-75
2022/09/13 10:20:43;;;;;;;7.55;2.40;;;21.80;99.90;;;;;;4983985;28;20033;-76
2022/09/13 10:23:14;;;;;;;5.63;2.13;;;21.90;99.90;;;;;;4989151;28;20389;-76
2022/09/13 10:25:44;;;;;;;7.78;3.42;;;22.10;99.90;;;;;;4990881;28;20124;-76
2022/09/13 10:28:15;;;;;;;6.53;2.47;;;22.20;99.90;;;;;;4991077;28;20038;-78
2022/09/13 10:31:06;;;;;;;4.68;2.78;;;22.50;99.90;;;;;;4979683;28;20038;-76
2022/09/13 10:33:43;;;;;;;3.38;1.85;;;22.50;99.90;;;;;;4977875;28;20504;-85
2022/09/13 10:36:22;;;;;;;11.65;2.63;;;22.30;99.90;;;;;;4992477;28;20042;-77
2022/09/13 10:39:17;;;;;;;6.63;2.90;;;22.20;99.90;;;;;;4991738;28;20095;-76
2022/09/13 10:42:09;;;;;;;3.40;2.05;;;22.50;99.90;;;;;;4990886;28;20140;-77
2022/09/13 10:44:44;;;;;;;3.97;2.22;;;22.60;99.90;;;;;;4988116;28;20791;-77
2022/09/13 10:47:18;;;;;;;3.78;1.90;;;22.40;99.90;;;;;;4990880;28;20038;-77
2022/09/13 10:49:53;;;;;;;5.78;2.17;;;22.50;99.90;;;;;;4990777;28;20041;-77
2022/09/13 10:52:35;;;;;;;4.07;2.00;;;22.20;99.90;;;;;;4980851;28;20030;-77
2022/09/13 10:55:41;;;;;;;4.30;2.10;;;22.40;99.90;;;;;;4984806;28;20034;-77
2022/09/13 10:58:07;;;;;;;4.13;2.10;;;22.50;99.90;;;;;;4990569;28;20042;-77
2022/09/13 11:01:26;;;;;;;5.75;1.92;;;22.50;99.90;;;;;;4991000;28;20025;-77
2022/09/13 11:04:22;;;;;;;11.38;2.03;;;22.60;99.90;;;;;;4987013;28;20120;-77
2022/09/13 11:07:02;;;;;;;4.13;2.10;;;22.60;99.90;;;;;;4989993;28;20117;-77
2022/09/13 11:09:46;;;;;;;2.85;1.77;;;22.60;99.90;;;;;;4985784;28;20031;-77
2022/09/13 11:12:52;;;;;;;5.13;1.70;;;22.60;99.90;;;;;;4983933;28;20046;-77
2022/09/13 11:16:02;;;;;;;5.30;1.88;;;22.70;99.90;;;;;;4962445;28;20043;-77
2022/09/13 11:19:25;;;;;;;3.83;2.17;;;22.70;99.90;;;;;;4987707;28;20057;-77
2022/09/13 11:22:21;;;;;;;3.35;1.67;;;22.70;99.90;;;;;;4987621;28;20084;-78
2022/09/13 11:25:34;;;;;;;1.70;1.20;;;22.50;99.90;;;;;;4988444;28;20454;-78
2022/09/13 11:29:00;;;;;;;6.10;2.13;;;22.70;99.90;;;;;;4984777;28;20039;-78
2022/09/13 11:31:57;;;;;;;19.67;7.55;;;22.70;99.90;;;;;;4977558;28;20105;-78
2022/09/13 11:34:45;;;;;;;5.70;2.78;;;22.80;99.90;;;;;;4952132;28;20043;-78
2022/09/13 11:37:38;;;;;;;5.65;2.85;;;22.90;99.90;;;;;;4987625;28;20037;-77
2022/09/13 11:40:42;;;;;;;3.63;1.65;;;23.00;99.90;;;;;;4990844;28;20030;-78
2022/09/13 11:43:37;;;;;;;6.22;2.33;;;23.00;99.90;;;;;;4989080;28;20034;-76
2022/09/13 11:46:29;;;;;;;5.43;1.83;;;22.70;99.90;;;;;;4989428;28;20026;-77
2022/09/13 11:49:09;;;;;;;6.60;1.77;;;22.70;99.90;;;;;;4968715;28;20054;-77
2022/09/13 11:52:19;;;;;;;14.40;2.40;;;22.40;99.90;;;;;;4973090;28;20070;-77
2022/09/13 11:54:51;;;;;;;4.13;1.50;;;22.40;99.90;;;;;;4988760;28;20220;-77
2022/09/13 11:57:25;;;;;;;5.22;1.63;;;22.40;99.90;;;;;;4989650;28;20355;-77
2022/09/13 12:00:21;;;;;;;2.33;1.08;;;22.50;99.90;;;;;;4989568;28;20078;-77
2022/09/13 12:02:58;;;;;;;3.78;1.70;;;22.40;99.90;;;;;;4980785;28;20100;-77
2022/09/13 12:05:34;;;;;;;4.35;1.77;;;22.60;99.90;;;;;;4984631;28;20042;-77
2022/09/13 12:08:08;;;;;;;2.53;1.58;;;22.70;99.90;;;;;;4989345;28;20030;-77
2022/09/13 12:10:58;;;;;;;5.38;2.20;;;22.60;99.90;;;;;;4989050;28;20026;-77
2022/09/13 12:13:34;;;;;;;3.72;1.73;;;22.60;99.90;;;;;;4972720;28;20512;-77
2022/09/13 12:16:11;;;;;;;5.32;1.70;;;22.60;99.90;;;;;;4988534;28;20458;-77
2022/09/13 12:18:46;;;;;;;4.50;1.67;;;22.60;99.90;;;;;;4990040;28;20034;-77
2022/09/13 12:21:22;;;;;;;3.28;1.70;;;22.60;99.90;;;;;;4985035;28;20545;-78
2022/09/13 12:23:59;;;;;;;3.38;1.92;;;22.70;99.90;;;;;;4987755;28;20045;-77
2022/09/13 12:26:58;;;;;;;5.13;2.05;;;22.60;99.90;;;;;;4990480;28;20042;-78
2022/09/13 12:29:54;;;;;;;2.33;1.55;;;22.60;99.90;;;;;;4982105;28;20026;-78
2022/09/13 12:32:22;;;;;;;3.42;2.08;;;22.50;99.90;;;;;;4969904;28;20582;-78
2022/09/13 12:34:57;;;;;;;2.22;1.40;;;22.50;99.90;;;;;;4988487;28;20034;-79
2022/09/13 12:37:51;;;;;;;2.58;1.50;;;22.50;99.90;;;;;;4989994;28;20030;-79
2022/09/13 12:40:39;;;;;;;2.33;1.27;;;22.50;99.90;;;;;;4986615;28;20062;-78
2022/09/13 12:43:47;;;;;;;1.95;1.20;;;22.50;99.90;;;;;;4989456;28;20038;-77
2022/09/13 12:46:56;;;;;;;10.18;1.67;;;22.50;99.90;;;;;;4990019;28;20082;-76
2022/09/13 12:49:51;;;;;;;2.28;1.60;;;22.60;99.90;;;;;;4988894;28;20121;-78
2022/09/13 12:52:54;;;;;;;9.43;1.73;;;22.60;99.90;;;;;;4988798;28;20034;-78
2022/09/13 12:55:42;;;;;;;5.18;2.35;;;22.60;99.90;;;;;;4987688;28;20050;-77
2022/09/13 12:58:26;;;;;;;3.92;2.03;;;22.70;99.90;;;;;;4982463;28;20506;-78
2022/09/13 13:01:29;;;;;;;3.13;1.85;;;22.70;99.90;;;;;;4979359;28;20038;-78
2022/09/13 13:04:12;;;;;;;3.28;1.85;;;22.70;99.90;;;;;;4942110;28;20049;-78
2022/09/13 13:06:50;;;;;;;3.88;2.03;;;22.80;99.90;;;;;;4988204;28;20026;-78
2022/09/13 13:09:52;;;;;;;2.58;1.70;;;23.10;99.90;;;;;;4986627;28;20035;-79
2022/09/13 13:12:39;;;;;;;4.85;1.42;;;23.40;99.90;;;;;;4987916;28;20478;-79
2022/09/13 13:15:27;;;;;;;5.43;1.15;;;23.80;99.90;;;;;;4990111;28;20096;-79
2022/09/13 13:17:56;;;;;;;2.25;1.30;;;24.10;99.90;;;;;;4955385;28;20069;-79
2022/09/13 13:20:43;;;;;;;12.85;2.88;;;24.10;99.90;;;;;;4988389;28;20023;-79
2022/09/13 13:23:22;;;;;;;3.67;2.33;;;24.20;99.90;;;;;;4986793;28;20030;-79
2022/09/13 13:26:10;;;;;;;4.03;1.40;;;24.30;99.90;;;;;;4987547;28;20061;-80
2022/09/13 13:28:42;;;;;;;4.30;2.10;;;24.70;99.90;;;;;;4978407;28;20042;-79
2022/09/13 13:31:28;;;;;;;4.32;1.70;;;24.60;99.90;;;;;;4988917;28;20046;-78
2022/09/13 13:34:01;;;;;;;6.80;1.80;;;24.90;99.90;;;;;;4981742;28;20031;-78
2022/09/13 13:36:39;;;;;;;3.60;1.83;;;24.50;99.90;;;;;;4988027;28;20033;-78
2022/09/13 13:39:23;;;;;;;6.80;1.50;;;25.10;99.90;;;;;;4989319;28;20579;-78